Time;durP1;ratioP1;P1;durP2;ratioP2;P2;SDS_P1;SDS_P2;PMS_P1;PMS_P2;Temp;Humidity;BMP_temperature;BMP_pressure;BME280_temperature;BME280_humidity;BME280_pressure;Samples;Min_cycle;Max_cycle;Signal;HPM_P1;HPM_P2
2022/01/19 00:01:17;;;;;;;10.07;6.60;;;6.80;99.90;;;;;;5065949;28;20443;-49
2022/01/19 00:03:43;;;;;;;11.77;6.00;;;6.60;99.90;;;;;;5061357;28;20432;-51
2022/01/19 00:06:09;;;;;;;8.33;5.87;;;6.80;99.90;;;;;;5065577;28;20439;-51
2022/01/19 00:08:34;;;;;;;12.20;6.53;;;6.70;99.90;;;;;;5064885;28;20579;-48
2022/01/19 00:11:00;;;;;;;9.00;5.93;;;6.60;99.90;;;;;;5062712;28;20437;-50
2022/01/19 00:13:26;;;;;;;7.53;5.73;;;6.50;99.90;;;;;;5065388;28;20180;-51
2022/01/19 00:15:52;;;;;;;6.70;5.57;;;6.50;99.90;;;;;;5061236;28;20441;-49
2022/01/19 00:18:20;;;;;;;6.60;5.50;;;6.60;99.90;;;;;;5062562;28;20219;-50
2022/01/19 00:20:47;;;;;;;7.73;5.90;;;6.60;99.90;;;;;;5048438;28;20425;-49
2022/01/19 00:23:15;;;;;;;9.03;6.17;;;6.50;99.90;;;;;;5060510;28;20517;-50
2022/01/19 00:25:42;;;;;;;12.50;5.23;;;6.50;99.90;;;;;;5053909;28;20438;-50
2022/01/19 00:28:09;;;;;;;8.03;5.57;;;6.70;99.90;;;;;;5061184;28;20461;-50
2022/01/19 00:30:35;;;;;;;7.40;5.50;;;6.80;99.90;;;;;;5063992;28;20446;-51
2022/01/19 00:33:01;;;;;;;12.50;7.07;;;6.50;99.90;;;;;;5064894;28;20492;-51
2022/01/19 00:35:27;;;;;;;12.23;5.50;;;6.50;99.90;;;;;;5060057;28;20180;-50
2022/01/19 00:37:53;;;;;;;10.90;5.77;;;6.60;99.90;;;;;;5050473;28;20410;-52
2022/01/19 00:40:19;;;;;;;8.10;5.70;;;6.40;99.90;;;;;;5048589;28;20540;-50
2022/01/19 00:42:45;;;;;;;7.70;5.90;;;6.40;99.90;;;;;;5065168;28;20514;-48
2022/01/19 00:45:12;;;;;;;8.77;5.90;;;6.10;99.90;;;;;;5060435;28;20191;-49
2022/01/19 00:47:38;;;;;;;8.63;5.67;;;6.00;99.90;;;;;;5062849;28;20422;-52
2022/01/19 00:50:06;;;;;;;10.77;7.23;;;6.10;99.90;;;;;;5064432;28;20469;-50
2022/01/19 00:52:34;;;;;;;8.10;6.00;;;6.20;99.90;;;;;;5059768;28;20431;-49
2022/01/19 00:55:00;;;;;;;8.70;5.80;;;6.40;99.90;;;;;;5065587;28;20513;-51
2022/01/19 00:57:26;;;;;;;7.03;5.20;;;6.50;99.90;;;;;;5062770;28;20513;-50
2022/01/19 00:59:52;;;;;;;12.40;5.50;;;6.40;99.90;;;;;;5063974;28;20245;-49
2022/01/19 01:02:18;;;;;;;9.17;5.60;;;6.40;99.90;;;;;;5061664;28;20213;-52
2022/01/19 01:04:43;;;;;;;10.23;5.83;;;6.30;99.90;;;;;;5059011;28;20438;-48
2022/01/19 01:07:09;;;;;;;8.03;6.47;;;6.40;99.90;;;;;;5065301;28;20179;-50
2022/01/19 01:09:35;;;;;;;6.63;5.37;;;6.50;99.90;;;;;;5059065;28;20211;-52
2022/01/19 01:12:19;;;;;;;5.77;5.03;;;6.20;99.90;;;;;;5062491;28;20591;-50
2022/01/19 01:20:14;;;;;;;9.70;5.90;;;6.30;99.90;;;;;;5064040;28;20465;-52
2022/01/19 01:22:40;;;;;;;8.47;5.50;;;6.30;99.90;;;;;;5063192;28;21046;-50
2022/01/19 01:25:07;;;;;;;8.20;5.13;;;6.10;99.90;;;;;;5043935;28;20706;-49
2022/01/19 01:27:33;;;;;;;10.43;6.77;;;6.20;99.90;;;;;;5064845;28;20433;-51
2022/01/19 01:29:59;;;;;;;8.37;6.47;;;6.20;99.90;;;;;;5059354;28;20477;-51
2022/01/19 01:32:25;;;;;;;7.27;6.20;;;6.30;99.90;;;;;;5062219;28;20476;-49
2022/01/19 01:34:52;;;;;;;8.40;5.80;;;6.30;99.90;;;;;;5057952;28;20441;-48
2022/01/19 01:37:19;;;;;;;7.83;5.90;;;6.20;99.90;;;;;;5060949;28;21208;-50
2022/01/19 01:39:45;;;;;;;9.30;7.13;;;6.20;99.90;;;;;;5053318;28;20848;-50
2022/01/19 01:42:12;;;;;;;9.93;6.43;;;6.20;99.90;;;;;;5045284;28;20502;-51
2022/01/19 01:44:41;;;;;;;8.33;6.20;;;6.20;99.90;;;;;;5061109;28;20475;-48
2022/01/19 01:47:07;;;;;;;7.43;6.63;;;6.20;99.90;;;;;;5062453;28;20805;-50
2022/01/19 01:55:13;;;;;;;10.17;7.10;;;5.90;99.90;;;;;;5060838;28;22131;-48
2022/01/19 01:57:39;;;;;;;10.20;7.00;;;6.10;99.90;;;;;;5060399;28;21025;-48
2022/01/19 02:00:08;;;;;;;8.73;6.80;;;6.00;99.90;;;;;;5061127;28;20795;-48
2022/01/19 02:02:34;;;;;;;12.50;7.20;;;5.80;99.90;;;;;;5058717;28;20483;-50
2022/01/19 02:05:00;;;;;;;11.10;6.90;;;5.90;99.90;;;;;;5059877;28;20465;-48
2022/01/19 02:07:39;;;;;;;13.13;7.47;;;5.80;99.90;;;;;;5043331;28;20267;-52
2022/01/19 02:10:07;;;;;;;8.43;6.50;;;5.80;99.90;;;;;;5055981;28;20481;-48
2022/01/19 02:23:40;;;;;;;10.13;7.03;;;6.40;99.90;;;;;;5059112;28;20420;-49
2022/01/19 02:26:12;;;;;;;7.87;5.90;;;6.40;99.90;;;;;;5062935;28;20432;-49
2022/01/19 02:42:13;;;;;;;7.33;5.50;;;6.10;99.90;;;;;;5063200;28;20452;-52
2022/01/19 02:49:50;;;;;;;9.20;6.30;;;6.10;99.90;;;;;;5061772;28;20485;-53
2022/01/19 02:52:17;;;;;;;10.40;6.70;;;5.80;99.90;;;;;;5060273;28;20539;-50
2022/01/19 02:54:43;;;;;;;14.00;7.37;;;5.80;99.90;;;;;;5046403;28;20437;-48
2022/01/19 02:57:12;;;;;;;9.53;6.90;;;5.80;99.90;;;;;;5060220;28;20490;-52
2022/01/19 03:10:16;;;;;;;9.73;6.67;;;5.40;99.90;;;;;;5059932;28;20503;-51
2022/01/19 03:12:42;;;;;;;11.83;6.67;;;5.50;99.90;;;;;;5055593;28;20433;-49
2022/01/19 03:15:11;;;;;;;9.93;7.40;;;5.50;99.90;;;;;;5060994;28;20418;-49
2022/01/19 03:17:37;;;;;;;11.53;6.70;;;5.40;99.90;;;;;;5062854;28;20433;-52
2022/01/19 03:20:05;;;;;;;10.13;7.30;;;5.20;99.90;;;;;;5047467;28;20463;-50
2022/01/19 03:22:38;;;;;;;13.10;7.27;;;5.10;99.90;;;;;;5065499;28;20182;-52
2022/01/19 03:25:11;;;;;;;10.20;7.23;;;5.10;99.90;;;;;;5060136;28;20437;-50
2022/01/19 03:27:37;;;;;;;9.23;6.40;;;5.20;99.90;;;;;;5052212;28;20490;-52
2022/01/19 03:30:04;;;;;;;12.03;8.10;;;5.50;99.90;;;;;;5065078;28;20531;-52
2022/01/19 03:32:30;;;;;;;9.40;6.00;;;5.70;99.90;;;;;;5066093;28;20441;-52
2022/01/19 03:34:55;;;;;;;8.13;6.80;;;5.70;99.90;;;;;;5064539;28;20835;-50
2022/01/19 03:37:21;;;;;;;13.33;7.30;;;5.50;99.90;;;;;;5059979;28;20277;-51
2022/01/19 03:39:47;;;;;;;11.40;7.50;;;5.40;99.90;;;;;;5064881;28;20210;-50
2022/01/19 03:42:12;;;;;;;8.93;7.90;;;5.50;99.90;;;;;;5063189;28;20723;-48
2022/01/19 03:44:39;;;;;;;13.17;7.33;;;5.30;99.90;;;;;;5062679;28;20270;-52
2022/01/19 03:47:05;;;;;;;10.03;7.73;;;5.20;99.90;;;;;;5064901;28;20652;-49
2022/01/19 03:49:33;;;;;;;10.83;7.73;;;5.20;99.90;;;;;;5059389;28;20476;-50
2022/01/19 03:52:02;;;;;;;9.87;7.00;;;5.20;99.90;;;;;;5065288;28;20429;-50
2022/01/19 03:54:29;;;;;;;9.07;6.37;;;5.10;99.90;;;;;;5060838;28;20476;-51
2022/01/19 03:56:55;;;;;;;7.67;6.83;;;5.10;99.90;;;;;;5057803;28;20444;-50
2022/01/19 03:59:21;;;;;;;11.43;7.40;;;5.20;99.90;;;;;;5063040;28;20452;-50
2022/01/19 04:01:47;;;;;;;12.70;8.00;;;5.10;99.90;;;;;;5060891;28;20465;-49
2022/01/19 04:04:33;;;;;;;17.47;7.80;;;4.90;99.90;;;;;;5062770;28;20988;-50
2022/01/19 04:07:07;;;;;;;11.07;7.90;;;4.70;99.90;;;;;;5048817;28;20191;-51
2022/01/19 04:09:35;;;;;;;12.83;7.97;;;4.90;99.90;;;;;;5065601;28;20584;-50
2022/01/19 04:12:02;;;;;;;12.33;7.97;;;4.80;99.90;;;;;;5063041;28;20472;-55
2022/01/19 04:14:28;;;;;;;12.23;9.00;;;4.90;99.90;;;;;;5059679;28;20430;-51
2022/01/19 04:17:20;;;;;;;11.47;8.23;;;4.40;99.90;;;;;;5052250;28;20472;-50
2022/01/19 04:19:47;;;;;;;13.37;7.40;;;4.60;99.90;;;;;;5056197;28;20229;-49
2022/01/19 04:22:18;;;;;;;14.97;8.80;;;4.60;99.90;;;;;;5061462;28;20597;-48
2022/01/19 04:24:46;;;;;;;10.93;8.60;;;4.40;99.90;;;;;;5062038;28;20424;-50
2022/01/19 04:29:46;;;;;;;10.73;7.30;;;4.60;99.90;;;;;;5061246;28;20844;-52
2022/01/19 04:32:17;;;;;;;10.43;7.90;;;4.60;99.90;;;;;;5060890;28;21055;-52
2022/01/19 04:34:44;;;;;;;11.53;8.40;;;4.70;99.90;;;;;;5063088;28;20915;-48
2022/01/19 05:01:45;;;;;;;13.40;8.03;;;4.70;99.90;;;;;;5060910;28;20490;-49
2022/01/19 05:04:31;;;;;;;13.60;8.73;;;4.60;99.90;;;;;;5047895;28;20434;-47
2022/01/19 05:07:17;;;;;;;11.97;8.27;;;4.40;99.90;;;;;;5064028;28;20782;-48
2022/01/19 05:15:12;;;;;;;10.10;9.00;;;4.60;99.90;;;;;;5060947;28;20521;-47
2022/01/19 05:17:38;;;;;;;9.33;7.10;;;4.70;99.90;;;;;;5060569;28;20414;-47
2022/01/19 05:20:05;;;;;;;12.53;7.77;;;4.60;99.90;;;;;;5065888;28;20532;-48
2022/01/19 05:22:31;;;;;;;12.50;7.30;;;4.40;99.90;;;;;;5060675;28;21140;-48
2022/01/19 05:24:56;;;;;;;9.37;7.03;;;4.10;99.90;;;;;;5058986;28;20422;-50
2022/01/19 05:27:22;;;;;;;14.30;7.00;;;4.00;99.90;;;;;;5062896;28;20183;-47
2022/01/19 05:29:49;;;;;;;10.90;7.40;;;4.00;99.90;;;;;;5058841;28;20211;-48
2022/01/19 05:32:15;;;;;;;16.07;7.73;;;3.90;99.90;;;;;;5064935;28;20480;-49
2022/01/19 05:34:40;;;;;;;10.07;7.90;;;3.90;99.90;;;;;;5060094;28;20805;-49
2022/01/19 05:37:06;;;;;;;13.23;8.57;;;3.90;99.90;;;;;;5062534;28;20191;-48
2022/01/19 05:39:32;;;;;;;13.00;8.60;;;3.70;99.90;;;;;;5062500;28;20603;-48
2022/01/19 05:42:15;;;;;;;13.50;9.00;;;3.60;99.90;;;;;;5060907;28;20188;-49
2022/01/19 05:44:43;;;;;;;15.57;10.27;;;3.50;99.90;;;;;;5062509;28;20167;-52
2022/01/19 05:47:10;;;;;;;15.00;9.77;;;3.40;99.90;;;;;;5059874;28;20837;-48
2022/01/19 05:49:37;;;;;;;10.93;8.63;;;3.30;99.90;;;;;;5047271;28;20664;-47
2022/01/19 05:52:11;;;;;;;14.13;10.33;;;3.40;99.90;;;;;;5060950;28;20452;-51
2022/01/19 05:54:37;;;;;;;12.87;9.70;;;3.40;99.90;;;;;;5040354;28;20867;-49
2022/01/19 05:57:03;;;;;;;13.47;9.37;;;3.20;99.90;;;;;;5049146;28;20419;-47
2022/01/19 05:59:28;;;;;;;11.93;9.53;;;3.20;99.90;;;;;;5041209;28;20229;-48
2022/01/19 06:01:55;;;;;;;14.27;9.60;;;3.10;99.90;;;;;;5062325;28;21017;-49
2022/01/19 06:04:21;;;;;;;10.93;9.40;;;3.30;99.90;;;;;;5059340;28;20657;-48
2022/01/19 06:06:49;;;;;;;15.60;9.60;;;3.20;99.90;;;;;;5059492;28;21094;-50
2022/01/19 06:10:00;;;;;;;15.43;11.30;;;3.20;99.90;;;;;;5061788;28;20750;-47
2022/01/19 06:12:09;;;;;;;15.50;10.80;;;3.10;99.90;;;;;;5057349;28;20468;-47
2022/01/19 06:14:37;;;;;;;14.77;10.83;;;2.80;99.90;;;;;;5047929;28;20970;-47
2022/01/19 06:17:05;;;;;;;14.93;11.13;;;2.80;99.90;;;;;;5062306;28;20671;-48
2022/01/19 06:19:31;;;;;;;15.87;10.70;;;2.80;99.90;;;;;;5061005;28;20896;-49
2022/01/19 06:21:56;;;;;;;15.43;10.03;;;2.90;99.90;;;;;;5062863;28;20528;-48
2022/01/19 06:24:22;;;;;;;14.30;10.87;;;2.90;99.90;;;;;;5040705;28;20492;-50
2022/01/19 06:26:48;;;;;;;14.50;10.27;;;3.00;99.90;;;;;;5063210;28;20189;-51
2022/01/19 06:29:13;;;;;;;16.40;10.27;;;3.10;99.90;;;;;;5061047;28;20718;-49
2022/01/19 06:31:39;;;;;;;22.00;11.60;;;2.90;99.90;;;;;;5058229;28;20635;-52
2022/01/19 06:34:05;;;;;;;16.53;10.93;;;2.90;99.90;;;;;;5062021;28;20246;-53
2022/01/19 06:36:31;;;;;;;15.70;10.83;;;3.00;99.90;;;;;;5058259;28;20539;-48
2022/01/19 06:38:57;;;;;;;13.53;11.33;;;3.10;99.90;;;;;;5062306;28;20635;-48
2022/01/19 06:41:22;;;;;;;16.50;11.13;;;2.90;99.90;;;;;;5059054;28;20190;-53
2022/01/19 06:43:48;;;;;;;15.47;11.40;;;2.80;99.90;;;;;;5047743;28;20445;-50
2022/01/19 06:46:14;;;;;;;16.70;11.43;;;2.90;99.90;;;;;;5060519;28;20289;-48
2022/01/19 06:48:39;;;;;;;16.50;11.47;;;2.90;99.90;;;;;;5043896;28;20864;-52
2022/01/19 06:51:05;;;;;;;14.53;10.27;;;3.00;99.90;;;;;;5045749;28;20180;-53
2022/01/19 06:53:31;;;;;;;15.47;10.77;;;2.80;99.90;;;;;;5039658;28;20188;-48
2022/01/19 06:55:57;;;;;;;17.30;11.37;;;2.80;99.90;;;;;;5058466;28;20267;-49
2022/01/19 06:58:27;;;;;;;16.50;10.63;;;2.90;99.90;;;;;;5042986;28;20223;-51
2022/01/19 07:00:54;;;;;;;19.10;11.70;;;2.80;99.90;;;;;;5058097;28;20434;-51
2022/01/19 07:03:20;;;;;;;18.77;12.40;;;3.00;99.90;;;;;;5061631;28;20437;-50
2022/01/19 07:05:46;;;;;;;20.17;12.60;;;2.90;99.90;;;;;;5058003;28;20654;-50
2022/01/19 07:08:11;;;;;;;19.80;11.87;;;2.80;99.90;;;;;;5062389;28;20733;-51
2022/01/19 07:10:37;;;;;;;15.83;11.80;;;2.60;99.90;;;;;;5059990;28;20445;-49
2022/01/19 07:13:04;;;;;;;18.07;12.17;;;2.80;99.90;;;;;;5057738;28;20233;-48
2022/01/19 07:15:30;;;;;;;16.80;11.70;;;2.80;99.90;;;;;;5060947;28;20601;-50
2022/01/19 07:17:55;;;;;;;18.07;11.60;;;2.70;99.90;;;;;;5059218;28;21230;-50
2022/01/19 07:20:21;;;;;;;21.90;12.13;;;2.80;99.90;;;;;;5062785;28;20535;-51
2022/01/19 07:22:48;;;;;;;16.00;12.40;;;2.70;99.90;;;;;;5058551;28;20227;-49
2022/01/19 07:25:14;;;;;;;15.40;11.77;;;3.00;99.90;;;;;;5059833;28;20652;-47
2022/01/19 07:27:40;;;;;;;18.30;12.00;;;3.20;99.90;;;;;;5045016;28;20436;-48
2022/01/19 07:30:08;;;;;;;20.10;11.57;;;3.30;99.90;;;;;;5059889;28;20465;-49
2022/01/19 07:32:35;;;;;;;21.50;11.87;;;3.00;99.90;;;;;;5062689;28;20181;-49
2022/01/19 07:35:05;;;;;;;17.87;12.33;;;3.10;99.90;;;;;;5041208;28;20429;-50
2022/01/19 07:37:31;;;;;;;16.77;11.67;;;3.00;99.90;;;;;;5061373;28;20516;-50
2022/01/19 07:39:57;;;;;;;20.20;12.27;;;3.00;99.90;;;;;;5058804;28;20547;-50
2022/01/19 07:42:23;;;;;;;19.97;13.13;;;3.10;99.90;;;;;;5058703;28;20188;-48
2022/01/19 07:44:49;;;;;;;17.37;12.47;;;3.00;99.90;;;;;;5059201;28;20873;-50
2022/01/19 07:47:15;;;;;;;15.33;12.07;;;2.90;99.90;;;;;;5058188;28;20454;-49
2022/01/19 07:49:41;;;;;;;19.43;12.70;;;2.90;99.90;;;;;;5047576;28;20211;-52
2022/01/19 07:52:06;;;;;;;19.83;11.63;;;3.00;99.90;;;;;;5056866;28;20509;-52
2022/01/19 07:54:32;;;;;;;17.30;12.63;;;3.10;99.90;;;;;;5047030;28;20186;-49
2022/01/19 07:56:58;;;;;;;17.90;12.93;;;3.00;99.90;;;;;;5057740;28;20182;-50
2022/01/19 07:59:23;;;;;;;23.67;13.30;;;3.20;99.90;;;;;;5057457;28;20231;-49
2022/01/19 08:01:49;;;;;;;17.87;11.70;;;3.10;99.90;;;;;;5063305;28;20179;-52
2022/01/19 08:04:14;;;;;;;17.00;11.93;;;3.20;99.90;;;;;;5058771;28;20672;-48
2022/01/19 08:06:40;;;;;;;16.17;11.47;;;3.40;99.90;;;;;;5063757;28;20226;-51
2022/01/19 08:09:07;;;;;;;18.00;11.93;;;3.50;99.90;;;;;;5065158;28;20214;-48
2022/01/19 08:11:33;;;;;;;22.53;13.03;;;3.60;99.90;;;;;;5065154;28;20225;-47
2022/01/19 08:13:59;;;;;;;20.07;13.10;;;3.20;99.90;;;;;;5046835;28;20418;-48
2022/01/19 08:16:24;;;;;;;20.00;12.93;;;3.20;99.90;;;;;;5042018;28;20805;-52
2022/01/19 08:18:50;;;;;;;19.40;12.53;;;3.30;99.90;;;;;;5066324;28;20707;-50
2022/01/19 08:21:16;;;;;;;15.57;11.93;;;3.40;99.90;;;;;;5061306;28;20191;-48
2022/01/19 08:23:41;;;;;;;15.13;11.07;;;3.30;99.90;;;;;;5062535;28;20190;-52
2022/01/19 08:26:07;;;;;;;19.70;12.47;;;3.20;99.90;;;;;;5049189;28;20641;-51
2022/01/19 08:28:33;;;;;;;20.60;12.57;;;3.10;99.90;;;;;;5047581;28;20271;-50
2022/01/19 08:30:59;;;;;;;24.53;14.70;;;3.00;99.90;;;;;;5061939;28;20945;-51
2022/01/19 08:33:25;;;;;;;18.30;12.67;;;2.80;99.90;;;;;;5062240;28;20179;-50
2022/01/19 08:35:51;;;;;;;19.33;14.17;;;2.90;99.90;;;;;;5061697;28;20210;-50
2022/01/19 08:38:17;;;;;;;26.73;14.67;;;2.90;99.90;;;;;;5062367;28;20178;-53
2022/01/19 08:40:43;;;;;;;20.70;14.40;;;2.80;99.90;;;;;;5062818;28;20454;-51
2022/01/19 08:43:09;;;;;;;19.90;13.63;;;2.90;99.90;;;;;;5064162;28;20417;-48
2022/01/19 08:45:35;;;;;;;21.37;15.60;;;3.00;99.90;;;;;;5042799;28;20432;-51
2022/01/19 08:48:01;;;;;;;17.83;14.30;;;3.00;99.90;;;;;;5066049;28;20566;-50
2022/01/19 08:50:27;;;;;;;24.20;15.87;;;2.90;99.90;;;;;;5059890;28;20469;-50
2022/01/19 08:52:53;;;;;;;26.73;16.43;;;2.90;99.90;;;;;;5063075;28;20422;-53
2022/01/19 08:55:19;;;;;;;23.97;14.73;;;2.80;99.90;;;;;;5063189;28;20769;-50
2022/01/19 08:57:46;;;;;;;29.73;14.97;;;2.70;99.90;;;;;;5061920;28;20190;-53
2022/01/19 09:00:14;;;;;;;22.40;13.90;;;2.80;99.90;;;;;;5062051;28;20221;-52
2022/01/19 09:02:40;;;;;;;21.40;14.03;;;2.90;99.90;;;;;;5063466;28;20433;-50
2022/01/19 09:05:07;;;;;;;16.77;12.43;;;2.90;99.90;;;;;;5056755;28;20441;-50
2022/01/19 09:07:32;;;;;;;25.63;13.17;;;2.90;99.90;;;;;;5065358;28;20175;-54
2022/01/19 09:09:58;;;;;;;22.77;13.60;;;3.10;99.90;;;;;;5058544;28;21023;-52
2022/01/19 09:12:24;;;;;;;19.57;13.73;;;3.10;99.90;;;;;;5064145;28;20474;-48
2022/01/19 09:14:51;;;;;;;17.77;13.70;;;3.00;99.90;;;;;;5043948;28;20190;-49
2022/01/19 09:17:17;;;;;;;15.40;12.30;;;3.10;99.90;;;;;;5061796;28;20907;-50
2022/01/19 09:19:42;;;;;;;17.13;12.73;;;3.30;99.90;;;;;;5064336;28;20452;-51
2022/01/19 09:22:09;;;;;;;17.07;12.57;;;3.30;99.90;;;;;;5044734;28;20537;-50
2022/01/19 09:24:37;;;;;;;19.30;13.40;;;3.20;99.90;;;;;;5062015;28;20186;-49
2022/01/19 09:27:04;;;;;;;18.00;14.07;;;3.30;99.90;;;;;;5059393;28;20528;-47
2022/01/19 09:29:30;;;;;;;19.20;13.03;;;3.20;99.90;;;;;;5064208;28;20465;-49
2022/01/19 09:31:57;;;;;;;16.60;12.47;;;3.20;99.90;;;;;;5062207;28;20516;-50
2022/01/19 09:34:23;;;;;;;17.87;13.97;;;3.20;99.90;;;;;;5058264;28;20527;-52
2022/01/19 09:36:49;;;;;;;20.63;12.90;;;3.20;99.90;;;;;;5063132;28;20410;-50
2022/01/19 09:39:19;;;;;;;19.40;14.93;;;3.20;99.90;;;;;;5058032;28;20444;-49
2022/01/19 09:41:46;;;;;;;19.90;13.60;;;3.10;99.90;;;;;;5060883;28;20548;-51
2022/01/19 09:44:12;;;;;;;20.37;13.10;;;3.20;99.90;;;;;;5059840;28;20441;-51
2022/01/19 09:46:39;;;;;;;17.57;12.37;;;3.30;99.90;;;;;;5062229;28;20866;-53
2022/01/19 09:49:05;;;;;;;23.57;13.77;;;3.40;99.90;;;;;;5048419;28;20463;-49
2022/01/19 09:51:32;;;;;;;19.70;13.83;;;3.40;99.90;;;;;;5059298;28;20437;-49
2022/01/19 09:53:57;;;;;;;19.80;12.50;;;3.50;99.90;;;;;;5058527;28;20473;-50
2022/01/19 09:56:23;;;;;;;21.73;11.70;;;3.50;99.90;;;;;;5062103;28;20437;-49
2022/01/19 09:58:49;;;;;;;14.37;10.60;;;3.50;99.90;;;;;;5062428;28;20214;-53
2022/01/19 10:01:19;;;;;;;18.53;12.23;;;3.50;99.90;;;;;;5063245;28;21152;-50
2022/01/19 10:03:46;;;;;;;23.53;13.27;;;3.50;99.90;;;;;;5057713;28;20186;-49
2022/01/19 10:06:14;;;;;;;15.43;11.70;;;3.50;99.90;;;;;;5061112;28;20547;-50
2022/01/19 10:08:44;;;;;;;21.30;13.10;;;3.50;99.90;;;;;;5058819;28;20649;-49
2022/01/19 10:11:16;;;;;;;19.00;12.93;;;3.50;99.90;;;;;;5062086;28;20432;-49
2022/01/19 10:19:34;;;;;;;20.37;12.93;;;3.70;99.90;;;;;;5061672;28;20553;-47
2022/01/19 10:22:16;;;;;;;16.90;13.23;;;3.70;99.90;;;;;;5060027;28;20405;-48
2022/01/19 10:25:00;;;;;;;20.67;12.60;;;3.70;99.90;;;;;;5057019;28;20425;-48
2022/01/19 10:27:29;;;;;;;24.63;12.77;;;3.70;99.90;;;;;;5060182;28;20445;-47
2022/01/19 10:30:24;;;;;;;20.97;13.10;;;3.70;99.90;;;;;;5060394;28;20469;-47
2022/01/19 10:33:00;;;;;;;23.10;12.30;;;3.80;99.90;;;;;;5054263;28;21034;-47
2022/01/19 10:35:37;;;;;;;21.00;12.67;;;3.80;99.90;;;;;;5062974;28;20420;-47
2022/01/19 10:38:09;;;;;;;18.30;12.20;;;3.90;99.90;;;;;;5058867;28;20413;-49
2022/01/19 10:40:36;;;;;;;17.97;12.60;;;4.00;99.90;;;;;;5043945;28;20999;-47
2022/01/19 10:43:36;;;;;;;19.03;12.60;;;4.00;99.90;;;;;;5061295;28;20797;-48
2022/01/19 10:46:25;;;;;;;20.90;13.00;;;4.20;99.90;;;;;;5013252;28;20513;-49
2022/01/19 10:49:11;;;;;;;20.30;12.13;;;4.30;99.90;;;;;;5060025;28;20891;-49
2022/01/19 10:51:44;;;;;;;18.00;13.07;;;4.40;99.90;;;;;;5060431;28;20413;-50
2022/01/19 10:54:10;;;;;;;15.57;10.97;;;4.40;99.90;;;;;;5059924;28;20884;-50
2022/01/19 10:56:37;;;;;;;15.30;11.70;;;4.50;99.90;;;;;;5061609;28;20504;-51
2022/01/19 10:59:09;;;;;;;18.53;12.30;;;4.50;99.90;;;;;;5059719;28;20211;-49
2022/01/19 11:01:45;;;;;;;19.07;12.50;;;4.60;99.90;;;;;;5061207;28;20438;-49
2022/01/19 11:04:38;;;;;;;17.27;11.57;;;4.70;99.90;;;;;;5059716;28;20511;-49
2022/01/19 11:07:12;;;;;;;16.13;11.50;;;4.70;99.90;;;;;;5058816;28;20529;-49
2022/01/19 11:09:46;;;;;;;19.37;10.17;;;4.70;99.90;;;;;;5058531;28;20561;-49
2022/01/19 11:12:16;;;;;;;14.83;10.27;;;4.60;99.90;;;;;;5061153;28;20508;-48
2022/01/19 11:14:43;;;;;;;14.07;11.17;;;4.70;99.90;;;;;;5055793;28;20445;-48
2022/01/19 11:17:09;;;;;;;12.77;9.90;;;4.70;99.90;;;;;;5048179;28;20436;-49
2022/01/19 11:19:37;;;;;;;14.27;9.13;;;4.80;99.90;;;;;;5057699;28;20470;-48
2022/01/19 11:22:35;;;;;;;16.83;10.70;;;5.00;99.90;;;;;;5061610;28;20513;-51
2022/01/19 11:25:04;;;;;;;15.73;10.47;;;5.00;99.90;;;;;;5052199;28;20429;-51
2022/01/19 11:27:38;;;;;;;17.80;12.27;;;5.10;99.90;;;;;;5057496;28;20494;-50
2022/01/19 11:30:33;;;;;;;21.33;11.10;;;5.30;99.90;;;;;;5060889;28;20468;-49
2022/01/19 11:33:25;;;;;;;16.67;11.10;;;5.40;99.90;;;;;;5059664;28;20432;-50
2022/01/19 11:35:53;;;;;;;21.73;13.40;;;5.60;99.90;;;;;;5056868;28;20795;-47
2022/01/19 11:38:41;;;;;;;20.37;12.20;;;5.70;99.90;;;;;;5064893;28;20428;-50
2022/01/19 11:41:09;;;;;;;14.33;10.57;;;5.70;99.90;;;;;;5066086;28;20437;-50
2022/01/19 11:43:38;;;;;;;16.37;11.23;;;5.70;99.90;;;;;;5062912;28;20445;-48
2022/01/19 11:46:24;;;;;;;18.17;11.53;;;5.80;99.90;;;;;;5062632;28;20472;-47
2022/01/19 11:48:50;;;;;;;16.97;11.97;;;5.70;99.90;;;;;;5061837;28;20468;-50
2022/01/19 11:51:34;;;;;;;18.80;11.70;;;5.70;99.90;;;;;;5060763;28;20441;-48
2022/01/19 11:54:11;;;;;;;17.53;11.37;;;5.70;99.90;;;;;;5061495;28;20853;-51
2022/01/19 11:56:58;;;;;;;18.00;10.80;;;5.70;99.90;;;;;;5062568;28;20836;-49
2022/01/19 11:59:30;;;;;;;18.63;11.73;;;5.70;99.90;;;;;;5063588;28;20713;-48
2022/01/19 12:02:21;;;;;;;18.93;12.00;;;5.60;99.90;;;;;;5046420;28;20463;-48
2022/01/19 12:05:18;;;;;;;17.70;13.60;;;5.50;99.90;;;;;;5058990;28;20594;-49
2022/01/19 12:07:52;;;;;;;16.60;11.97;;;5.50;99.90;;;;;;5062603;28;20443;-48
2022/01/19 12:10:21;;;;;;;15.23;11.90;;;5.50;99.90;;;;;;5064428;28;20476;-50
2022/01/19 12:13:56;;;;;;;15.63;11.87;;;5.40;99.90;;;;;;5060701;28;20418;-50
2022/01/19 12:16:47;;;;;;;21.00;11.07;;;5.40;99.90;;;;;;5062528;28;20470;-51
2022/01/19 12:19:15;;;;;;;20.10;12.40;;;5.50;99.90;;;;;;5052140;28;21201;-49
2022/01/19 12:21:48;;;;;;;15.37;11.57;;;5.50;99.90;;;;;;5059496;28;21116;-47
2022/01/19 12:24:22;;;;;;;19.60;11.90;;;5.50;99.90;;;;;;5064856;28;20426;-47
2022/01/19 12:27:08;;;;;;;17.83;12.13;;;5.50;99.90;;;;;;5062329;28;20442;-51
2022/01/19 12:29:33;;;;;;;18.87;12.50;;;5.50;99.90;;;;;;5059218;28;20832;-48
2022/01/19 12:32:02;;;;;;;19.00;13.30;;;5.50;99.90;;;;;;5066142;28;20409;-50
2022/01/19 12:34:41;;;;;;;22.70;14.20;;;5.50;99.90;;;;;;5061641;28;20536;-51
2022/01/19 12:37:08;;;;;;;13.90;9.10;;;5.50;99.90;;;;;;5063106;28;20801;-47
2022/01/19 12:39:37;;;;;;;17.90;11.70;;;5.50;99.90;;;;;;5047917;28;20518;-52
2022/01/19 12:42:17;;;;;;;21.60;13.47;;;5.50;99.90;;;;;;5060053;28;20461;-51
2022/01/19 12:44:57;;;;;;;19.10;13.00;;;5.50;99.90;;;;;;5062291;28;20420;-51
2022/01/19 12:47:26;;;;;;;17.03;11.83;;;5.50;99.90;;;;;;5065416;28;20494;-50
2022/01/19 12:50:04;;;;;;;21.70;12.40;;;5.50;99.90;;;;;;5062504;28;20468;-50
2022/01/19 12:52:32;;;;;;;16.40;12.90;;;5.40;99.90;;;;;;5064985;28;20877;-49
2022/01/19 12:55:08;;;;;;;19.03;12.23;;;5.40;99.90;;;;;;5058520;28;20448;-52
2022/01/19 12:57:34;;;;;;;16.10;10.20;;;5.40;99.90;;;;;;5061020;28;20441;-49
2022/01/19 13:00:00;;;;;;;22.70;13.40;;;5.40;99.90;;;;;;5064872;28;20546;-48
2022/01/19 13:02:29;;;;;;;20.43;9.43;;;5.30;99.90;;;;;;5061138;28;20435;-49
2022/01/19 13:05:04;;;;;;;20.60;12.83;;;5.40;99.90;;;;;;5059158;28;20490;-49
2022/01/19 13:07:31;;;;;;;18.27;12.37;;;5.40;99.90;;;;;;5065248;28;20945;-51
2022/01/19 13:09:59;;;;;;;23.90;14.13;;;5.40;99.90;;;;;;5059453;28;20470;-48
2022/01/19 13:12:37;;;;;;;21.87;13.27;;;5.40;99.90;;;;;;5063836;28;20513;-52
2022/01/19 13:15:04;;;;;;;20.67;12.50;;;5.40;99.90;;;;;;5058670;28;20428;-50
2022/01/19 13:17:46;;;;;;;20.03;14.10;;;5.40;99.90;;;;;;5062200;28;20540;-50
2022/01/19 13:20:23;;;;;;;18.27;11.80;;;5.40;99.90;;;;;;5062699;28;20448;-50
2022/01/19 13:22:56;;;;;;;18.63;12.67;;;5.40;99.90;;;;;;5059972;28;20429;-50
2022/01/19 13:25:25;;;;;;;19.40;11.10;;;5.30;99.90;;;;;;5063688;28;20452;-48
2022/01/19 13:27:55;;;;;;;20.50;13.00;;;5.40;99.90;;;;;;5059904;28;20429;-50
2022/01/19 13:30:23;;;;;;;26.30;15.53;;;5.30;99.90;;;;;;5064287;28;20455;-51
2022/01/19 13:32:49;;;;;;;21.43;13.63;;;5.30;99.90;;;;;;5064064;28;20420;-49
2022/01/19 13:35:16;;;;;;;18.80;11.67;;;5.30;99.90;;;;;;5056377;28;20438;-53
2022/01/19 13:37:48;;;;;;;23.83;15.10;;;5.20;99.90;;;;;;5062971;28;20252;-52
2022/01/19 13:40:18;;;;;;;21.23;13.87;;;5.20;99.90;;;;;;5060640;28;20452;-51
2022/01/19 13:43:03;;;;;;;21.43;14.50;;;5.20;99.90;;;;;;5061555;28;20437;-51
2022/01/19 13:45:38;;;;;;;26.50;15.17;;;5.20;99.90;;;;;;5062006;28;20470;-47
2022/01/19 13:50:55;;;;;;;21.50;14.67;;;5.30;99.90;;;;;;5060229;28;20946;-51
2022/01/19 13:53:33;;;;;;;22.07;12.60;;;5.30;99.90;;;;;;5061390;28;20421;-49
2022/01/19 13:56:01;;;;;;;21.03;13.67;;;5.30;99.90;;;;;;5058471;28;20874;-51
2022/01/19 13:58:32;;;;;;;25.07;16.40;;;5.20;99.90;;;;;;5063078;28;20413;-53
2022/01/19 14:01:03;;;;;;;20.37;13.70;;;5.30;99.90;;;;;;5059980;28;20426;-50
2022/01/19 14:03:47;;;;;;;30.40;14.83;;;5.20;99.90;;;;;;5059038;28;20542;-50
2022/01/19 14:06:29;;;;;;;23.37;13.63;;;5.20;99.90;;;;;;5061958;28;20428;-47
2022/01/19 14:09:10;;;;;;;24.97;15.80;;;5.20;99.90;;;;;;5057510;28;20840;-48
2022/01/19 14:11:37;;;;;;;27.00;15.80;;;5.10;99.90;;;;;;5064126;28;20421;-50
2022/01/19 14:14:09;;;;;;;22.97;13.87;;;5.10;99.90;;;;;;5058784;28;20470;-47
2022/01/19 14:16:38;;;;;;;26.17;14.30;;;5.20;99.90;;;;;;5058465;28;20410;-49
2022/01/19 14:19:31;;;;;;;23.00;15.33;;;5.20;99.90;;;;;;5064063;28;20871;-48
2022/01/19 14:22:16;;;;;;;23.47;14.87;;;5.20;99.90;;;;;;5058906;28;20547;-51
2022/01/19 14:24:45;;;;;;;22.93;15.30;;;5.20;99.90;;;;;;5057540;28;20899;-50
2022/01/19 14:27:13;;;;;;;23.33;12.83;;;5.20;99.90;;;;;;5063472;28;20421;-49
2022/01/19 14:30:15;;;;;;;29.70;15.93;;;5.20;99.90;;;;;;5061172;28;20484;-50